createdAt,value
2017-11-11T00:00:41.315Z,5.3
2017-11-11T00:01:41.184Z,5.3
2017-11-11T00:02:42.548Z,5.3
2017-11-11T00:03:41.605Z,5.3
2017-11-11T00:04:41.268Z,5.3
2017-11-11T00:05:41.587Z,5.3
2017-11-11T00:06:41.673Z,5.3
2017-11-11T00:07:41.653Z,5.3
2017-11-11T00:08:41.439Z,5.3
2017-11-11T00:09:41.291Z,5.3
2017-11-11T00:10:41.237Z,5.3
2017-11-11T00:11:41.355Z,5.3
2017-11-11T00:12:41.314Z,5.3
2017-11-11T00:13:42.206Z,5.3
2017-11-11T00:14:41.483Z,5.3
2017-11-11T00:15:41.191Z,5.3
2017-11-11T00:16:41.723Z,5.3
2017-11-11T00:17:41.671Z,5.3
2017-11-11T00:18:42.235Z,5.2
2017-11-11T00:19:41.711Z,5.2
2017-11-11T00:20:41.672Z,5.2
2017-11-11T00:21:41.626Z,5.2
2017-11-11T00:22:41.400Z,5.2
2017-11-11T00:23:41.326Z,5.2
2017-11-11T00:24:41.643Z,5.2
2017-11-11T00:25:41.800Z,4.9
2017-11-11T00:26:41.129Z,4.9
2017-11-11T00:27:41.610Z,4.9
2017-11-11T00:28:41.229Z,4.9
2017-11-11T00:29:41.190Z,4.9
2017-11-11T00:30:41.601Z,4.7
2017-11-11T00:31:41.680Z,4.7
2017-11-11T00:32:41.610Z,4.7
2017-11-11T00:33:41.405Z,4.7
2017-11-11T00:34:41.535Z,4.7
2017-11-11T00:35:41.590Z,4.7
2017-11-11T00:36:41.546Z,4.7
2017-11-11T00:37:41.341Z,4.7
2017-11-11T00:38:41.583Z,4.5
2017-11-11T00:39:41.475Z,4.5
2017-11-11T00:40:41.163Z,4.5
2017-11-11T00:41:41.365Z,4.5
2017-11-11T00:42:41.517Z,4.5
2017-11-11T00:43:41.571Z,4.5
2017-11-11T00:44:41.526Z,4.5
2017-11-11T00:45:41.568Z,4.3
2017-11-11T00:46:41.509Z,4.3
2017-11-11T00:47:41.566Z,4.3
2017-11-11T00:48:41.578Z,4.4
2017-11-11T00:49:41.185Z,4.4
2017-11-11T00:50:41.328Z,4.4
2017-11-11T00:51:41.273Z,4.4
2017-11-11T00:52:41.226Z,4.4
2017-11-11T00:53:41.328Z,4.3
2017-11-11T00:54:41.198Z,4.3
2017-11-11T00:55:41.642Z,4.3
2017-11-11T00:56:41.645Z,4.3
2017-11-11T00:57:41.618Z,4.3
2017-11-11T00:58:41.263Z,4.3
2017-11-11T00:59:41.679Z,4.3
2017-11-11T01:00:41.625Z,4.3
2017-11-11T01:01:41.216Z,4.2
2017-11-11T01:02:41.429Z,4.2
2017-11-11T01:03:41.460Z,4.0
2017-11-11T01:04:41.675Z,4.0
2017-11-11T01:05:41.558Z,4.0
2017-11-11T01:06:41.261Z,3.9
2017-11-11T01:07:41.293Z,3.9
2017-11-11T01:08:41.659Z,3.7
2017-11-11T01:09:41.533Z,3.7
2017-11-11T01:10:41.623Z,3.7
2017-11-11T01:11:41.722Z,3.7
2017-11-11T01:12:41.959Z,3.7
2017-11-11T01:13:41.294Z,3.7
2017-11-11T01:14:41.695Z,3.7
2017-11-11T01:15:41.281Z,3.7
2017-11-11T01:16:41.372Z,3.7
2017-11-11T01:17:41.708Z,3.7
2017-11-11T01:18:41.735Z,3.7
2017-11-11T01:19:41.276Z,3.5
2017-11-11T01:20:41.575Z,3.5
2017-11-11T01:21:41.581Z,3.4
2017-11-11T01:22:41.269Z,3.4
2017-11-11T01:23:41.387Z,3.4
2017-11-11T01:24:41.643Z,3.5
2017-11-11T01:25:41.618Z,3.5
2017-11-11T01:26:41.688Z,3.3
2017-11-11T01:27:41.715Z,3.3
2017-11-11T01:28:41.635Z,3.3
2017-11-11T01:29:41.242Z,3.2
2017-11-11T01:30:41.464Z,3.2
2017-11-11T01:31:41.500Z,3.3
2017-11-11T01:32:41.775Z,3.3
2017-11-11T01:33:41.501Z,3.3
2017-11-11T01:34:41.681Z,3.3
2017-11-11T01:35:41.752Z,3.3
2017-11-11T01:36:41.539Z,3.3
2017-11-11T01:37:41.691Z,3.3
2017-11-11T01:38:41.511Z,3.3
2017-11-11T01:39:41.654Z,3.2
2017-11-11T01:40:41.532Z,3.2
2017-11-11T01:41:41.557Z,3.0
2017-11-11T01:42:41.811Z,3.0
2017-11-11T01:43:41.595Z,3.0
2017-11-11T01:44:41.280Z,3.0
2017-11-11T01:45:41.739Z,3.0
2017-11-11T01:46:41.714Z,3.0
2017-11-11T01:47:41.558Z,3.0
2017-11-11T01:48:41.740Z,3.0
2017-11-11T01:49:41.582Z,3.0
2017-11-11T01:50:41.529Z,3.0
2017-11-11T01:51:41.507Z,3.0
2017-11-11T01:52:41.762Z,3.0
2017-11-11T01:53:41.323Z,3.0
2017-11-11T01:54:42.844Z,2.8
2017-11-11T01:55:41.787Z,2.8
2017-11-11T01:56:41.678Z,2.8
2017-11-11T01:57:41.620Z,2.7
2017-11-11T01:58:41.779Z,2.7
2017-11-11T01:59:41.484Z,2.7
2017-11-11T02:00:41.777Z,2.7
2017-11-11T02:01:41.585Z,2.7
2017-11-11T02:02:41.785Z,2.8
2017-11-11T02:03:41.406Z,2.8
2017-11-11T02:04:41.548Z,2.9
2017-11-11T02:05:41.764Z,2.9
2017-11-11T02:06:43.988Z,2.9
2017-11-11T02:07:41.607Z,2.8
2017-11-11T02:08:41.820Z,2.8
2017-11-11T02:09:41.785Z,2.8
2017-11-11T02:10:41.814Z,2.8
2017-11-11T02:11:41.848Z,2.8
2017-11-11T02:12:41.866Z,2.7
2017-11-11T02:13:41.554Z,2.7
2017-11-11T02:14:41.616Z,2.7
2017-11-11T02:15:41.733Z,2.7
2017-11-11T02:16:41.932Z,2.7
2017-11-11T02:17:41.828Z,2.7
2017-11-11T02:18:42.117Z,2.7
2017-11-11T02:19:44.083Z,2.7
2017-11-11T02:20:41.632Z,2.6
2017-11-11T02:21:41.765Z,2.6
2017-11-11T02:22:41.791Z,2.5
2017-11-11T02:23:41.462Z,2.5
2017-11-11T02:24:41.455Z,2.5
2017-11-11T02:25:41.806Z,2.5
2017-11-11T02:26:41.896Z,2.5
2017-11-11T02:27:42.301Z,2.2
2017-11-11T02:28:41.836Z,2.2
2017-11-11T02:29:41.906Z,2.2
2017-11-11T02:30:41.413Z,2.1
2017-11-11T02:31:41.842Z,2.1
2017-11-11T02:32:41.588Z,2.0
2017-11-11T02:33:41.881Z,2.0
2017-11-11T02:34:41.843Z,2.0
2017-11-11T02:35:41.826Z,1.9
2017-11-11T02:36:41.460Z,1.9
2017-11-11T02:37:41.801Z,1.8
2017-11-11T02:38:41.428Z,1.8
2017-11-11T02:39:41.339Z,1.8
2017-11-11T02:40:41.767Z,1.7
2017-11-11T02:41:41.830Z,1.7
2017-11-11T02:42:41.584Z,1.8
2017-11-11T02:43:43.158Z,1.8
2017-11-11T02:44:41.303Z,1.8
2017-11-11T02:45:41.744Z,1.7
2017-11-11T02:46:41.821Z,1.7
2017-11-11T02:47:41.507Z,1.7
2017-11-11T02:48:41.837Z,1.7
2017-11-11T02:49:41.889Z,1.7
2017-11-11T02:50:41.864Z,1.6
2017-11-11T02:51:41.857Z,1.6
2017-11-11T02:52:41.808Z,1.6
2017-11-11T02:53:41.938Z,1.5
2017-11-11T02:54:41.681Z,1.5
2017-11-11T02:55:41.743Z,1.6
2017-11-11T02:56:41.791Z,1.6
2017-11-11T02:57:41.542Z,1.6
2017-11-11T02:58:41.695Z,1.6
2017-11-11T02:59:41.506Z,1.6
2017-11-11T03:00:41.842Z,1.8
2017-11-11T03:01:41.918Z,1.8
2017-11-11T03:02:41.838Z,1.8
2017-11-11T03:03:41.900Z,1.8
2017-11-11T03:04:41.863Z,1.8
2017-11-11T03:05:41.745Z,1.8
2017-11-11T03:06:41.463Z,1.8
2017-11-11T03:07:41.939Z,1.8
2017-11-11T03:08:41.846Z,1.7
2017-11-11T03:09:41.504Z,1.7
2017-11-11T03:10:41.702Z,1.7
2017-11-11T03:11:41.945Z,1.7
2017-11-11T03:12:41.842Z,1.7
2017-11-11T03:13:41.449Z,1.7
2017-11-11T03:14:41.960Z,1.7
2017-11-11T03:15:41.675Z,1.6
2017-11-11T03:16:41.482Z,1.6
2017-11-11T03:17:41.924Z,1.6
2017-11-11T03:18:41.648Z,1.5
2017-11-11T03:19:41.441Z,1.5
2017-11-11T03:20:41.661Z,1.5
2017-11-11T03:21:41.543Z,1.4
2017-11-11T03:22:41.872Z,1.4
2017-11-11T03:23:41.907Z,1.4
2017-11-11T03:24:41.881Z,1.4
2017-11-11T03:25:41.525Z,1.4
2017-11-11T03:26:41.476Z,1.5
2017-11-11T03:27:41.801Z,1.5
2017-11-11T03:28:41.734Z,1.6
2017-11-11T03:29:41.655Z,1.6
2017-11-11T03:30:41.677Z,1.6
2017-11-11T03:31:41.472Z,1.6
2017-11-11T03:32:41.888Z,1.6
2017-11-11T03:33:41.990Z,1.5
2017-11-11T03:34:41.523Z,1.5
2017-11-11T03:35:41.941Z,1.5
2017-11-11T03:36:41.980Z,1.5
2017-11-11T03:37:41.762Z,1.5
2017-11-11T03:38:41.563Z,1.5
2017-11-11T03:39:41.975Z,1.5
2017-11-11T03:40:41.930Z,1.5
2017-11-11T03:41:41.989Z,1.5
2017-11-11T03:42:42.011Z,1.5
2017-11-11T03:43:41.683Z,1.6
2017-11-11T03:44:41.751Z,1.6
2017-11-11T03:45:42.722Z,1.6
2017-11-11T03:46:42.275Z,1.6
2017-11-11T03:47:41.996Z,1.6
2017-11-11T03:48:41.564Z,1.6
2017-11-11T03:49:41.585Z,1.6
2017-11-11T03:50:41.708Z,1.6
2017-11-11T03:51:42.024Z,1.7
2017-11-11T03:52:42.132Z,1.7
2017-11-11T03:53:41.565Z,1.7
2017-11-11T03:54:41.705Z,1.8
2017-11-11T03:55:42.017Z,1.8
2017-11-11T03:56:41.621Z,1.9
2017-11-11T03:57:41.968Z,1.9
2017-11-11T03:58:41.987Z,1.9
2017-11-11T03:59:41.936Z,1.9
2017-11-11T04:00:42.154Z,1.9
2017-11-11T04:01:41.985Z,1.9
2017-11-11T04:02:42.007Z,1.9
2017-11-11T04:03:41.994Z,1.9
2017-11-11T04:04:41.907Z,2.0
2017-11-11T04:05:41.982Z,2.0
2017-11-11T04:06:42.584Z,2.0
2017-11-11T04:07:42.106Z,2.0
2017-11-11T04:08:42.027Z,2.0
2017-11-11T04:09:41.959Z,2.0
2017-11-11T04:10:41.557Z,2.0
2017-11-11T04:11:41.943Z,2.0
2017-11-11T04:12:41.865Z,2.0
2017-11-11T04:13:42.025Z,2.0
2017-11-11T04:14:41.798Z,1.9
2017-11-11T04:15:42.105Z,1.9
2017-11-11T04:16:42.046Z,1.9
2017-11-11T04:17:41.669Z,1.9
2017-11-11T04:18:42.019Z,1.9
2017-11-11T04:19:41.647Z,1.9
2017-11-11T04:20:41.828Z,1.9
2017-11-11T04:21:42.043Z,1.9
2017-11-11T04:22:41.954Z,2.1
2017-11-11T04:23:41.668Z,2.1
2017-11-11T04:24:41.821Z,2.2
2017-11-11T04:25:42.023Z,2.2
2017-11-11T04:26:41.840Z,2.2
2017-11-11T04:27:41.603Z,2.3
2017-11-11T04:28:41.640Z,2.3
2017-11-11T04:29:41.776Z,2.3
2017-11-11T04:30:42.056Z,2.3
2017-11-11T04:31:42.090Z,2.3
2017-11-11T04:32:42.070Z,2.3
2017-11-11T04:33:41.889Z,2.3
2017-11-11T04:34:42.052Z,2.4
2017-11-11T04:35:42.129Z,2.4
2017-11-11T04:36:41.844Z,2.4
2017-11-11T04:37:42.044Z,2.3
2017-11-11T04:38:42.029Z,2.3
2017-11-11T04:39:42.042Z,2.3
2017-11-11T04:40:41.888Z,2.3
2017-11-11T04:41:41.725Z,2.3
2017-11-11T04:42:41.849Z,2.3
2017-11-11T04:43:41.743Z,2.3
2017-11-11T04:44:41.984Z,2.5
2017-11-11T04:45:42.108Z,2.5
2017-11-11T04:46:42.172Z,2.5
2017-11-11T04:47:41.838Z,2.5
2017-11-11T04:48:42.051Z,2.5
2017-11-11T04:49:42.030Z,2.6
2017-11-11T04:50:42.020Z,2.6
2017-11-11T04:51:41.758Z,2.6
2017-11-11T04:52:41.714Z,2.7
2017-11-11T04:53:41.988Z,2.7
2017-11-11T04:54:42.040Z,2.7
2017-11-11T04:55:41.611Z,2.9
2017-11-11T04:56:41.993Z,2.9
2017-11-11T04:57:42.030Z,2.9
2017-11-11T04:58:42.160Z,2.9
2017-11-11T04:59:41.908Z,2.9
2017-11-11T05:00:41.706Z,2.9
2017-11-11T05:01:42.112Z,2.9
2017-11-11T05:02:42.128Z,3.1
2017-11-11T05:03:42.222Z,3.1
2017-11-11T05:04:42.374Z,3.1
2017-11-11T05:05:41.973Z,3.2
2017-11-11T05:06:42.113Z,3.2
2017-11-11T05:07:42.199Z,3.2
2017-11-11T05:08:41.876Z,3.2
2017-11-11T05:09:41.735Z,3.2
2017-11-11T05:10:42.147Z,2.9
2017-11-11T05:11:41.703Z,2.9
2017-11-11T05:12:41.907Z,2.9
2017-11-11T05:13:41.828Z,2.9
2017-11-11T05:14:41.941Z,2.9
2017-11-11T05:15:42.082Z,2.9
2017-11-11T05:16:43.548Z,2.9
2017-11-11T05:17:41.600Z,3.0
2017-11-11T05:18:42.161Z,3.0
2017-11-11T05:19:42.083Z,3.0
2017-11-11T05:20:41.734Z,3.0
2017-11-11T05:21:41.798Z,3.0
2017-11-11T05:22:42.166Z,3.0
2017-11-11T05:23:42.125Z,3.1
2017-11-11T05:24:42.185Z,3.1
2017-11-11T05:25:41.743Z,3.0
2017-11-11T05:26:42.249Z,3.0
2017-11-11T05:27:42.210Z,3.0
2017-11-11T05:28:42.197Z,2.8
2017-11-11T05:29:41.722Z,2.8
2017-11-11T05:30:42.111Z,2.8
2017-11-11T05:31:42.218Z,2.8
2017-11-11T05:32:42.237Z,2.8
2017-11-11T05:33:41.702Z,3.0
2017-11-11T05:34:41.702Z,3.0
2017-11-11T05:35:42.119Z,2.8
2017-11-11T05:36:42.165Z,2.8
2017-11-11T05:37:41.920Z,2.8
2017-11-11T05:38:41.739Z,2.9
2017-11-11T05:39:42.152Z,2.9
2017-11-11T05:40:41.964Z,2.9
2017-11-11T05:41:42.114Z,2.9
2017-11-11T05:42:42.165Z,2.9
2017-11-11T05:43:42.200Z,3.1
2017-11-11T05:44:41.827Z,3.1
2017-11-11T05:45:41.746Z,3.1
2017-11-11T05:46:42.219Z,3.1
2017-11-11T05:47:41.755Z,3.1
2017-11-11T05:48:41.709Z,3.2
2017-11-11T05:49:42.316Z,3.2
2017-11-11T05:50:42.137Z,3.1
2017-11-11T05:51:41.762Z,3.1
2017-11-11T05:52:42.215Z,3.1
2017-11-11T05:53:41.764Z,3.2
2017-11-11T05:54:41.964Z,3.2
2017-11-11T05:55:42.238Z,3.2
2017-11-11T05:56:42.226Z,3.2
2017-11-11T05:57:42.267Z,3.2
2017-11-11T05:58:42.094Z,3.2
2017-11-11T05:59:42.206Z,3.2
2017-11-11T06:00:42.634Z,3.2
2017-11-11T06:01:42.158Z,3.2
2017-11-11T06:02:42.257Z,3.2
2017-11-11T06:03:41.962Z,3.3
2017-11-11T06:04:42.156Z,3.3
2017-11-11T06:05:41.847Z,3.3
2017-11-11T06:06:42.225Z,3.4
2017-11-11T06:07:42.242Z,3.4
2017-11-11T06:08:42.233Z,3.3
2017-11-11T06:09:42.207Z,3.3
2017-11-11T06:10:41.840Z,3.3
2017-11-11T06:11:42.200Z,3.4
2017-11-11T06:12:42.227Z,3.4
2017-11-11T06:13:42.020Z,3.5
2017-11-11T06:14:42.205Z,3.5
2017-11-11T06:15:41.896Z,3.5
2017-11-11T06:16:42.048Z,3.5
2017-11-11T06:17:41.789Z,3.5
2017-11-11T06:18:42.214Z,3.6
2017-11-11T06:19:41.747Z,3.6
2017-11-11T06:20:42.206Z,3.6
2017-11-11T06:21:42.285Z,3.6
2017-11-11T06:22:41.860Z,3.6
2017-11-11T06:23:42.247Z,3.6
2017-11-11T06:24:42.031Z,3.8
2017-11-11T06:25:42.008Z,3.8
2017-11-11T06:26:42.298Z,3.9
2017-11-11T06:27:42.047Z,3.9
2017-11-11T06:28:42.337Z,3.9
2017-11-11T06:29:41.865Z,3.9
2017-11-11T06:30:42.284Z,3.9
2017-11-11T06:31:41.868Z,4.0
2017-11-11T06:32:42.338Z,4.0
2017-11-11T06:33:42.246Z,4.0
2017-11-11T06:34:42.053Z,4.0
2017-11-11T06:35:42.417Z,4.0
2017-11-11T06:36:42.363Z,4.0
2017-11-11T06:37:42.362Z,4.0
2017-11-11T06:38:42.309Z,4.0
2017-11-11T06:39:43.036Z,4.1
2017-11-11T06:40:42.314Z,4.1
2017-11-11T06:41:42.086Z,4.2
2017-11-11T06:42:41.933Z,4.2
2017-11-11T06:43:42.278Z,4.2
2017-11-11T06:44:42.240Z,4.2
2017-11-11T06:45:42.393Z,4.2
2017-11-11T06:46:42.054Z,4.3
2017-11-11T06:47:42.080Z,4.3
2017-11-11T06:48:42.366Z,4.3
2017-11-11T06:49:42.218Z,4.3
2017-11-11T06:50:41.960Z,4.3
2017-11-11T06:51:42.309Z,4.4
2017-11-11T06:52:42.165Z,4.4
2017-11-11T06:53:42.339Z,4.4
2017-11-11T06:54:42.100Z,4.4
2017-11-11T06:55:42.318Z,4.4
2017-11-11T06:56:41.975Z,4.4
2017-11-11T06:57:41.856Z,4.4
2017-11-11T06:58:41.916Z,4.4
2017-11-11T06:59:42.367Z,4.5
2017-11-11T07:00:42.096Z,4.5
2017-11-11T07:01:42.115Z,4.5
2017-11-11T07:02:42.452Z,4.5
2017-11-11T07:03:41.923Z,4.5
2017-11-11T07:04:42.427Z,4.5
2017-11-11T07:05:42.297Z,4.5
2017-11-11T07:06:42.930Z,4.5
2017-11-11T07:07:42.289Z,4.5
2017-11-11T07:08:42.327Z,4.5
2017-11-11T07:09:42.106Z,4.5
2017-11-11T07:10:42.355Z,4.5
2017-11-11T07:11:41.930Z,4.5
2017-11-11T07:12:41.959Z,4.6
2017-11-11T07:13:42.275Z,4.6
2017-11-11T07:14:42.350Z,4.6
2017-11-11T07:15:42.321Z,4.6
2017-11-11T07:16:42.497Z,4.6
2017-11-11T07:17:42.402Z,4.5
2017-11-11T07:18:42.352Z,4.5
2017-11-11T07:19:42.021Z,4.5
2017-11-11T07:20:42.415Z,4.5
2017-11-11T07:21:42.367Z,4.5
2017-11-11T07:22:41.907Z,4.4
2017-11-11T07:23:42.337Z,4.4
2017-11-11T07:24:42.116Z,4.4
2017-11-11T07:25:42.366Z,4.4
2017-11-11T07:26:42.108Z,4.4
2017-11-11T07:27:42.099Z,4.5
2017-11-11T07:28:43.213Z,4.5
2017-11-11T07:29:42.398Z,4.5
2017-11-11T07:30:42.123Z,4.5
2017-11-11T07:31:42.004Z,4.5
2017-11-11T07:32:42.172Z,4.5
2017-11-11T07:33:42.161Z,4.5
2017-11-11T07:34:41.976Z,4.5
2017-11-11T07:35:42.001Z,4.5
2017-11-11T07:36:41.918Z,4.5
2017-11-11T07:37:42.485Z,4.6
2017-11-11T07:38:42.182Z,4.6
2017-11-11T07:39:42.333Z,4.6
2017-11-11T07:40:42.751Z,4.6
2017-11-11T07:41:41.984Z,4.6
2017-11-11T07:42:42.434Z,4.6
2017-11-11T07:43:42.186Z,4.6
2017-11-11T07:44:42.365Z,4.6
2017-11-11T07:45:42.258Z,4.6
2017-11-11T07:46:42.143Z,4.6
2017-11-11T07:47:42.030Z,4.6
2017-11-11T07:48:42.099Z,4.6
2017-11-11T07:49:42.355Z,4.6
2017-11-11T07:50:42.665Z,4.5
2017-11-11T07:51:42.293Z,4.5
2017-11-11T07:52:42.479Z,4.5
2017-11-11T07:53:42.263Z,4.5
2017-11-11T07:54:42.192Z,4.5
2017-11-11T07:55:42.205Z,4.6
2017-11-11T07:56:41.978Z,4.6
2017-11-11T07:57:42.412Z,4.6
2017-11-11T07:58:42.318Z,4.5
2017-11-11T07:59:42.445Z,4.5
2017-11-11T08:00:42.160Z,4.6
2017-11-11T08:01:42.484Z,4.6
2017-11-11T08:02:42.011Z,4.6
2017-11-11T08:03:42.206Z,4.6
2017-11-11T08:04:42.483Z,4.6
2017-11-11T08:05:43.095Z,4.6
2017-11-11T08:06:42.526Z,4.6
2017-11-11T08:07:42.234Z,4.6
2017-11-11T08:08:42.450Z,4.6
2017-11-11T08:09:42.003Z,4.6
2017-11-11T08:10:42.590Z,4.7
2017-11-11T08:11:42.040Z,4.7
2017-11-11T08:12:42.606Z,4.7
2017-11-11T08:13:42.459Z,4.7
2017-11-11T08:14:42.096Z,4.7
2017-11-11T08:15:42.652Z,4.7
2017-11-11T08:16:43.243Z,4.7
2017-11-11T08:17:42.134Z,4.7
2017-11-11T08:18:42.206Z,4.7
2017-11-11T08:19:42.424Z,4.7
2017-11-11T08:20:42.416Z,4.7
2017-11-11T08:21:42.560Z,4.7
2017-11-11T08:22:42.696Z,4.7
2017-11-11T08:23:42.761Z,4.7
2017-11-11T08:24:42.775Z,4.7
2017-11-11T08:25:42.579Z,4.7
2017-11-11T08:26:42.810Z,4.7
2017-11-11T08:27:42.274Z,4.7
2017-11-11T08:28:42.593Z,4.7
2017-11-11T08:29:42.218Z,4.7
2017-11-11T08:30:42.701Z,4.7
2017-11-11T08:31:42.644Z,4.8
2017-11-11T08:32:42.622Z,4.8
2017-11-11T08:33:42.501Z,4.8
2017-11-11T08:34:42.130Z,4.8
2017-11-11T08:35:42.599Z,4.8
2017-11-11T08:36:42.487Z,4.8
2017-11-11T08:37:42.207Z,4.8
2017-11-11T08:38:42.301Z,4.8
2017-11-11T08:39:42.357Z,4.8
2017-11-11T08:40:42.534Z,4.8
2017-11-11T08:41:42.285Z,4.9
2017-11-11T08:42:42.596Z,4.9
2017-11-11T08:43:42.555Z,4.9
2017-11-11T08:44:42.542Z,4.9
2017-11-11T08:45:42.160Z,4.9
2017-11-11T08:46:42.614Z,5.1
2017-11-11T08:47:42.602Z,5.1
2017-11-11T08:48:42.331Z,5.2
2017-11-11T08:49:42.373Z,5.2
2017-11-11T08:50:42.138Z,5.2
2017-11-11T08:51:42.556Z,5.2
2017-11-11T08:52:42.510Z,5.2
2017-11-11T08:53:44.443Z,5.1
2017-11-11T08:54:42.608Z,5.1
2017-11-11T08:55:42.229Z,5.1
2017-11-11T08:56:42.332Z,5.1
2017-11-11T08:57:42.341Z,5.1
2017-11-11T08:58:42.526Z,5.1
2017-11-11T08:59:42.268Z,5.1
2017-11-11T09:00:42.690Z,5.1
2017-11-11T09:01:42.327Z,5.1
2017-11-11T09:02:42.499Z,5.1
2017-11-11T09:03:42.696Z,5.1
2017-11-11T09:04:42.579Z,5.1
2017-11-11T09:05:42.306Z,5.1
2017-11-11T09:06:42.674Z,5.1
2017-11-11T09:07:42.669Z,5.1
2017-11-11T09:08:42.625Z,5.1
2017-11-11T09:09:42.678Z,5.1
2017-11-11T09:10:43.115Z,5.1
2017-11-11T09:11:42.525Z,4.9
2017-11-11T09:12:42.335Z,4.9
2017-11-11T09:13:42.564Z,4.9
2017-11-11T09:14:42.686Z,4.9
2017-11-11T09:15:42.685Z,4.9
2017-11-11T09:16:42.211Z,4.9
2017-11-11T09:17:42.191Z,4.9
2017-11-11T09:18:42.183Z,4.9
2017-11-11T09:19:42.333Z,4.8
2017-11-11T09:20:45.223Z,4.8
2017-11-11T09:21:42.418Z,4.9
2017-11-11T09:22:42.600Z,4.9
2017-11-11T09:23:42.690Z,4.9
2017-11-11T09:24:42.395Z,4.9
2017-11-11T09:25:42.670Z,4.9
2017-11-11T09:26:42.771Z,4.9
2017-11-11T09:27:43.518Z,5.1
2017-11-11T09:28:42.553Z,5.1
2017-11-11T09:29:42.189Z,4.9
2017-11-11T09:30:42.321Z,4.9
2017-11-11T09:31:42.592Z,4.9
2017-11-11T09:32:43.670Z,5.1
2017-11-11T09:33:42.137Z,5.1
2017-11-11T09:34:42.662Z,4.9
2017-11-11T09:35:42.433Z,4.9
2017-11-11T09:36:42.351Z,4.9
2017-11-11T09:37:42.314Z,5.1
2017-11-11T09:38:42.607Z,5.1
2017-11-11T09:39:42.575Z,5.1
2017-11-11T09:40:42.617Z,5.1
2017-11-11T09:41:42.228Z,5.1
2017-11-11T09:42:42.475Z,4.9
2017-11-11T09:43:42.236Z,4.9
2017-11-11T09:44:42.643Z,4.9
2017-11-11T09:45:42.649Z,4.9
2017-11-11T09:46:42.663Z,4.9
2017-11-11T09:47:42.686Z,4.9
2017-11-11T09:48:42.305Z,4.9
2017-11-11T09:49:42.751Z,5.1
2017-11-11T09:50:42.598Z,5.1
2017-11-11T09:51:42.653Z,5.1
2017-11-11T09:52:42.573Z,5.1
2017-11-11T09:53:42.737Z,5.1
2017-11-11T09:54:42.471Z,5.2
2017-11-11T09:55:52.880Z,5.2
2017-11-11T09:56:42.450Z,5.2
2017-11-11T09:57:42.848Z,5.2
2017-11-11T09:58:43.358Z,5.2
2017-11-11T09:59:42.466Z,5.2
2017-11-11T10:00:42.756Z,5.2
2017-11-11T10:01:43.409Z,5.2
2017-11-11T10:02:42.326Z,5.2
2017-11-11T10:03:42.524Z,5.2
2017-11-11T10:04:43.058Z,5.2
2017-11-11T10:05:42.734Z,5.2
2017-11-11T10:06:42.743Z,5.2
2017-11-11T10:07:42.729Z,5.2
2017-11-11T10:08:42.536Z,5.2
2017-11-11T10:09:42.715Z,5.2
2017-11-11T10:10:42.722Z,5.2
2017-11-11T10:11:42.738Z,5.2
2017-11-11T10:12:42.328Z,5.2
2017-11-11T10:13:42.747Z,5.2
2017-11-11T10:14:42.376Z,5.2
2017-11-11T10:15:43.085Z,5.2
2017-11-11T10:16:42.520Z,5.2
2017-11-11T10:17:42.308Z,5.2
2017-11-11T10:18:42.763Z,5.2
2017-11-11T10:19:42.731Z,5.2
2017-11-11T10:20:42.927Z,5.3
2017-11-11T10:21:42.299Z,5.3
2017-11-11T10:22:43.009Z,5.4
2017-11-11T10:23:42.396Z,5.4
2017-11-11T10:24:42.304Z,5.4
2017-11-11T10:25:42.751Z,5.4
2017-11-11T10:26:42.759Z,5.4
2017-11-11T10:27:42.831Z,5.4
2017-11-11T10:28:42.739Z,5.4
2017-11-11T10:29:42.469Z,5.4
2017-11-11T10:30:42.495Z,5.4
2017-11-11T10:31:42.390Z,5.4
2017-11-11T10:32:42.699Z,5.4
2017-11-11T10:33:42.885Z,5.4
2017-11-11T10:34:43.243Z,5.4
2017-11-11T10:35:42.864Z,5.5
2017-11-11T10:36:42.819Z,5.5
2017-11-11T10:37:42.542Z,5.5
2017-11-11T10:38:42.877Z,5.4
2017-11-11T10:39:42.745Z,5.4
2017-11-11T10:40:43.164Z,5.4
2017-11-11T10:41:42.840Z,5.4
2017-11-11T10:42:42.891Z,5.4
2017-11-11T10:43:42.541Z,5.5
2017-11-11T10:44:42.673Z,5.5
2017-11-11T10:45:42.865Z,5.6
2017-11-11T10:46:42.391Z,5.6
2017-11-11T10:47:42.907Z,5.6
2017-11-11T10:48:42.870Z,5.6
2017-11-11T10:49:42.879Z,5.6
2017-11-11T10:50:43.418Z,5.6
2017-11-11T10:51:44.249Z,5.6
2017-11-11T10:52:42.845Z,5.6
2017-11-11T10:53:42.942Z,5.6
2017-11-11T10:54:43.572Z,5.6
2017-11-11T10:55:42.607Z,5.7
2017-11-11T10:56:42.668Z,5.7
2017-11-11T10:57:42.794Z,5.7
2017-11-11T10:58:42.865Z,5.6
2017-11-11T10:59:42.873Z,5.6
2017-11-11T11:00:42.867Z,5.6
2017-11-11T11:01:42.403Z,5.6
2017-11-11T11:02:42.582Z,5.6
2017-11-11T11:03:42.751Z,5.7
2017-11-11T11:04:43.437Z,5.7
2017-11-11T11:05:42.329Z,5.7
2017-11-11T11:06:42.848Z,5.7
2017-11-11T11:07:42.852Z,5.7
2017-11-11T11:08:42.819Z,5.7
2017-11-11T11:09:42.370Z,5.7
2017-11-11T11:10:42.824Z,5.7
2017-11-11T11:11:42.866Z,5.7
2017-11-11T11:12:42.815Z,5.7
2017-11-11T11:13:42.890Z,5.8
2017-11-11T11:14:43.471Z,5.8
2017-11-11T11:15:42.904Z,5.8
2017-11-11T11:16:42.459Z,5.7
2017-11-11T11:17:42.615Z,5.7
2017-11-11T11:18:42.903Z,5.7
2017-11-11T11:19:43.448Z,5.7
2017-11-11T11:20:42.863Z,5.7
2017-11-11T11:21:42.865Z,5.6
2017-11-11T11:22:42.458Z,5.6
2017-11-11T11:23:42.908Z,5.7
2017-11-11T11:24:45.044Z,5.7
2017-11-11T11:25:42.933Z,5.7
2017-11-11T11:26:42.908Z,5.7
2017-11-11T11:27:42.639Z,5.7
2017-11-11T11:28:42.882Z,5.7
2017-11-11T11:29:42.782Z,5.7
2017-11-11T11:30:42.862Z,5.7
2017-11-11T11:31:42.954Z,5.7
2017-11-11T11:32:42.919Z,5.7
2017-11-11T11:33:42.914Z,5.7
2017-11-11T11:34:42.355Z,5.8
2017-11-11T11:35:42.717Z,5.8
2017-11-11T11:36:42.944Z,5.8
2017-11-11T11:37:42.680Z,5.8
2017-11-11T11:38:42.910Z,5.8
2017-11-11T11:39:42.724Z,5.8
2017-11-11T11:40:42.888Z,5.8
2017-11-11T11:41:42.618Z,5.9
2017-11-11T11:42:42.826Z,5.9
2017-11-11T11:43:44.538Z,5.9
2017-11-11T11:44:42.701Z,5.9
2017-11-11T11:45:43.007Z,5.9
2017-11-11T11:46:42.507Z,5.9
2017-11-11T11:47:42.576Z,5.9
2017-11-11T11:48:42.912Z,5.9
2017-11-11T11:49:42.754Z,5.9
2017-11-11T11:50:42.778Z,5.9
2017-11-11T11:51:43.659Z,5.9
2017-11-11T11:52:42.590Z,5.9
2017-11-11T11:53:42.722Z,5.9
2017-11-11T11:54:42.916Z,5.8
2017-11-11T11:55:42.726Z,5.8
2017-11-11T11:56:42.513Z,5.8
2017-11-11T11:57:43.656Z,5.8
2017-11-11T11:58:42.973Z,5.8
2017-11-11T11:59:43.049Z,5.9
2017-11-11T12:00:42.504Z,5.9
2017-11-11T12:01:42.952Z,5.9
2017-11-11T12:02:43.580Z,5.8
2017-11-11T12:03:42.974Z,5.8
2017-11-11T12:04:42.954Z,5.8
2017-11-11T12:05:43.014Z,5.8
2017-11-11T12:06:42.896Z,5.8
2017-11-11T12:07:42.660Z,5.8
2017-11-11T12:08:42.556Z,5.8
2017-11-11T12:09:43.497Z,5.7
2017-11-11T12:10:42.905Z,5.7
2017-11-11T12:11:43.046Z,5.7
2017-11-11T12:12:43.338Z,5.7
2017-11-11T12:13:42.743Z,5.7
2017-11-11T12:14:43.075Z,5.8
2017-11-11T12:15:42.989Z,5.8
2017-11-11T12:16:43.014Z,5.8
2017-11-11T12:17:42.631Z,5.8
2017-11-11T12:18:43.019Z,5.8
2017-11-11T12:19:42.845Z,5.7
2017-11-11T12:20:43.001Z,5.7
2017-11-11T12:21:43.345Z,5.7
2017-11-11T12:22:43.623Z,5.7
2017-11-11T12:23:42.600Z,5.7
2017-11-11T12:24:42.735Z,5.7
2017-11-11T12:25:42.810Z,5.7
2017-11-11T12:26:42.992Z,5.7
2017-11-11T12:27:42.541Z,5.7
2017-11-11T12:28:42.995Z,5.7
2017-11-11T12:29:42.823Z,5.7
2017-11-11T12:30:42.419Z,5.7
2017-11-11T12:31:42.688Z,5.7
2017-11-11T12:32:42.951Z,5.7
2017-11-11T12:33:42.761Z,5.7
2017-11-11T12:34:42.520Z,5.7
2017-11-11T12:35:42.865Z,5.7
2017-11-11T12:36:42.770Z,5.7
2017-11-11T12:37:43.041Z,5.8
2017-11-11T12:38:42.967Z,5.8
2017-11-11T12:39:43.005Z,5.8
2017-11-11T12:40:43.022Z,5.9
2017-11-11T12:41:43.514Z,5.9
2017-11-11T12:42:43.089Z,5.9
2017-11-11T12:43:43.242Z,5.9
2017-11-11T12:44:42.753Z,5.9
2017-11-11T12:45:42.659Z,6.0
2017-11-11T12:46:42.960Z,6.0
2017-11-11T12:47:43.657Z,6.0
2017-11-11T12:48:42.818Z,6.0
2017-11-11T12:49:42.688Z,6.0
2017-11-11T12:50:43.016Z,6.0
2017-11-11T12:51:43.632Z,6.0
2017-11-11T12:52:43.053Z,6.1
2017-11-11T12:53:43.139Z,6.1
2017-11-11T12:54:42.667Z,6.1
2017-11-11T12:55:42.644Z,6.2
2017-11-11T12:56:43.046Z,6.2
2017-11-11T12:57:43.125Z,6.2
2017-11-11T12:58:43.117Z,6.2
2017-11-11T12:59:42.696Z,6.2
2017-11-11T13:00:43.079Z,6.0
2017-11-11T13:01:42.657Z,6.0
2017-11-11T13:02:43.052Z,6.0
2017-11-11T13:03:43.092Z,6.0
2017-11-11T13:04:42.658Z,6.0
2017-11-11T13:05:43.186Z,6.0
2017-11-11T13:06:43.109Z,6.0
2017-11-11T13:07:43.734Z,6.0
2017-11-11T13:08:43.107Z,6.0
2017-11-11T13:09:43.603Z,6.0
2017-11-11T13:10:43.108Z,6.0
2017-11-11T13:11:42.869Z,6.0
2017-11-11T13:12:43.007Z,6.0
2017-11-11T13:13:43.112Z,6.0
2017-11-11T13:14:42.687Z,6.0
2017-11-11T13:15:43.113Z,6.0
2017-11-11T13:16:42.830Z,6.0
2017-11-11T13:17:43.092Z,6.0
2017-11-11T13:18:42.834Z,6.0
2017-11-11T13:19:43.131Z,6.0
2017-11-11T13:20:42.643Z,6.0
2017-11-11T13:21:42.669Z,6.0
2017-11-11T13:22:43.110Z,6.0
2017-11-11T13:23:43.031Z,6.0
2017-11-11T13:24:43.073Z,6.0
2017-11-11T13:25:43.122Z,6.0
2017-11-11T13:26:43.264Z,6.0
2017-11-11T13:27:42.893Z,6.0
2017-11-11T13:28:43.058Z,6.0
2017-11-11T13:29:43.072Z,6.0
2017-11-11T13:30:42.654Z,6.0
2017-11-11T13:31:42.896Z,6.0
2017-11-11T13:32:42.741Z,6.0
2017-11-11T13:33:42.765Z,5.9
2017-11-11T13:34:42.932Z,5.9
2017-11-11T13:35:43.451Z,5.9
2017-11-11T13:36:43.080Z,5.9
2017-11-11T13:37:43.117Z,5.9
2017-11-11T13:38:42.840Z,6.0
2017-11-11T13:39:43.084Z,6.0
2017-11-11T13:40:42.934Z,6.0
2017-11-11T13:41:43.129Z,6.0
2017-11-11T13:42:42.891Z,6.0
2017-11-11T13:43:43.109Z,6.0
2017-11-11T13:44:43.062Z,6.0
2017-11-11T13:45:45.158Z,6.0
2017-11-11T13:46:43.116Z,6.0